TimeCDT,TemperatureF,Dew PointF,Humidity,Sea Level PressureIn,VisibilityMPH,Wind Direction,Wind SpeedMPH,Gust SpeedMPH,PrecipitationIn,Events,Conditions,WindDirDegrees,DateUTC
12:53 AM,42.1,36.0,79,30.15,10.0,West,4.6,-,N/A,,Clear,280,2012-09-18 05:53:00
1:53 AM,41.0,35.1,79,30.14,10.0,Calm,Calm,-,N/A,,Clear,0,2012-09-18 06:53:00
2:53 AM,39.2,33.8,81,30.15,10.0,Calm,Calm,-,N/A,,Clear,0,2012-09-18 07:53:00
3:53 AM,39.0,34.0,82,30.12,10.0,WSW,3.5,-,N/A,,Clear,240,2012-09-18 08:53:00
4:53 AM,39.0,34.0,82,30.11,10.0,Calm,Calm,-,N/A,,Clear,0,2012-09-18 09:53:00
5:53 AM,36.0,32.0,86,30.11,10.0,Calm,Calm,-,N/A,,Clear,0,2012-09-18 10:53:00
6:53 AM,36.0,32.0,86,30.11,10.0,West,3.5,-,N/A,,Clear,270,2012-09-18 11:53:00
7:53 AM,37.9,33.1,83,30.13,8.0,Calm,Calm,-,N/A,,Mostly Cloudy,0,2012-09-18 12:53:00
8:53 AM,42.1,36.0,79,30.13,10.0,Calm,Calm,-,N/A,,Overcast,0,2012-09-18 13:53:00
9:53 AM,50.0,36.0,59,30.12,10.0,SW,5.8,-,N/A,,Partly Cloudy,230,2012-09-18 14:53:00
10:53 AM,60.1,39.9,47,30.08,10.0,WSW,8.1,-,N/A,,Clear,250,2012-09-18 15:53:00
11:53 AM,70.0,41.0,35,30.06,10.0,West,8.1,-,N/A,,Clear,260,2012-09-18 16:53:00
12:53 PM,75.0,41.0,29,30.04,10.0,Variable,4.6,-,N/A,,Clear,0,2012-09-18 17:53:00
1:53 PM,79.0,37.0,22,30.01,10.0,West,8.1,-,N/A,,Clear,270,2012-09-18 18:53:00
2:53 PM,82.0,34.0,18,29.97,10.0,West,13.8,19.6,N/A,,Clear,280,2012-09-18 19:53:00
3:53 PM,81.0,34.0,18,29.94,10.0,Variable,4.6,-,N/A,,Clear,0,2012-09-18 20:53:00
4:53 PM,84.0,34.0,17,29.92,10.0,WNW,5.8,-,N/A,,Clear,300,2012-09-18 21:53:00
5:53 PM,84.0,34.0,17,29.91,10.0,NW,5.8,-,N/A,,Clear,320,2012-09-18 22:53:00
6:53 PM,81.0,35.1,19,29.91,10.0,WNW,4.6,-,N/A,,Clear,300,2012-09-18 23:53:00
7:53 PM,77.0,37.0,24,29.91,10.0,WNW,4.6,-,N/A,,Clear,290,2012-09-19 00:53:00
8:53 PM,71.1,39.9,32,29.92,10.0,SSW,5.8,-,N/A,,Clear,210,2012-09-19 01:53:00
9:53 PM,62.1,37.9,41,29.93,10.0,WSW,6.9,-,N/A,,Clear,240,2012-09-19 02:53:00
10:53 PM,59.0,37.0,44,29.91,10.0,WSW,8.1,-,N/A,,Clear,240,2012-09-19 03:53:00
11:53 PM,55.0,37.9,53,29.91,10.0,WSW,3.5,-,N/A,,Clear,250,2012-09-19 04:53:00